Time;durP1;ratioP1;P1;durP2;ratioP2;P2;SDS_P1;SDS_P2;PMS_P1;PMS_P2;Temp;Humidity;BMP_temperature;BMP_pressure;BME280_temperature;BME280_humidity;BME280_pressure;Samples;Min_cycle;Max_cycle;Signal;HPM_P1;HPM_P2
2023/04/11 00:02:12;;;;;;;3.25;1.17;;;8.80;99.90;;;;;;4957924;28;20050;-72
2023/04/11 00:04:37;;;;;;;4.47;1.27;;;8.80;99.90;;;;;;4958120;28;20053;-68
2023/04/11 00:07:04;;;;;;;4.07;0.90;;;9.00;99.90;;;;;;4975081;28;20051;-69
2023/04/11 00:09:30;;;;;;;2.85;0.70;;;8.70;99.90;;;;;;4975026;28;20100;-73
2023/04/11 00:11:56;;;;;;;1.88;0.50;;;8.60;99.90;;;;;;4975063;28;20089;-72
2023/04/11 00:14:23;;;;;;;2.60;0.47;;;8.70;99.90;;;;;;4975432;28;20492;-68
2023/04/11 00:16:52;;;;;;;2.85;0.70;;;8.50;99.90;;;;;;4974936;28;20046;-68
2023/04/11 00:19:22;;;;;;;2.63;0.65;;;8.40;99.90;;;;;;4975233;28;20046;-67
2023/04/11 00:21:48;;;;;;;4.63;0.70;;;8.30;99.90;;;;;;4974902;28;20051;-67
2023/04/11 00:24:14;;;;;;;2.85;0.63;;;8.40;99.90;;;;;;4975420;28;20516;-67
2023/04/11 00:26:40;;;;;;;0.95;0.43;;;8.40;99.90;;;;;;4975610;28;20074;-67
2023/04/11 00:29:05;;;;;;;3.38;0.90;;;8.30;99.90;;;;;;4974740;28;20400;-68
2023/04/11 00:31:31;;;;;;;4.32;0.60;;;8.20;99.90;;;;;;4958430;28;20046;-68
2023/04/11 00:33:57;;;;;;;1.73;0.50;;;8.30;99.90;;;;;;4974707;28;20078;-68
2023/04/11 00:36:22;;;;;;;3.88;0.60;;;8.50;99.90;;;;;;4974724;28;20524;-69
2023/04/11 00:38:48;;;;;;;3.40;0.60;;;8.30;99.90;;;;;;4957495;28;20056;-68
2023/04/11 00:41:14;;;;;;;2.40;0.60;;;8.30;99.90;;;;;;4957517;28;20134;-68
2023/04/11 00:43:39;;;;;;;2.10;0.52;;;8.40;99.90;;;;;;4975161;28;20059;-69
2023/04/11 00:46:07;;;;;;;1.80;0.43;;;8.20;99.90;;;;;;4957902;28;20465;-68
2023/04/11 00:48:34;;;;;;;3.95;0.70;;;8.20;99.90;;;;;;4974596;28;20085;-68
2023/04/11 00:51:00;;;;;;;4.53;0.52;;;8.20;99.90;;;;;;4974800;28;20054;-69
2023/04/11 00:53:31;;;;;;;3.28;0.52;;;8.10;99.90;;;;;;4974587;28;20051;-68
2023/04/11 00:55:58;;;;;;;4.50;0.70;;;8.10;99.90;;;;;;4974976;28;20473;-69
2023/04/11 00:58:25;;;;;;;1.65;0.90;;;8.10;99.90;;;;;;4975368;28;20437;-68
2023/04/11 01:00:50;;;;;;;2.20;0.40;;;8.00;99.90;;;;;;4958026;28;20051;-68
2023/04/11 01:03:17;;;;;;;2.83;0.60;;;8.00;99.90;;;;;;4974790;28;20046;-69
2023/04/11 01:05:44;;;;;;;1.90;0.77;;;7.90;99.90;;;;;;4974655;28;20043;-69
2023/04/11 01:08:11;;;;;;;2.83;0.40;;;8.00;99.90;;;;;;4974490;28;20113;-69
2023/04/11 01:10:38;;;;;;;2.80;0.55;;;8.00;99.90;;;;;;4974370;28;20043;-69
2023/04/11 01:13:03;;;;;;;2.95;0.50;;;7.80;99.90;;;;;;4975121;28;20373;-69
2023/04/11 01:15:29;;;;;;;2.28;0.70;;;7.80;99.90;;;;;;4974325;28;20043;-69
2023/04/11 01:17:56;;;;;;;4.28;0.60;;;7.70;99.90;;;;;;4974023;28;20088;-69
2023/04/11 01:20:23;;;;;;;2.63;0.93;;;7.60;99.90;;;;;;4974230;28;20122;-70
2023/04/11 01:22:49;;;;;;;2.92;0.88;;;7.60;99.90;;;;;;4974783;28;20055;-69
2023/04/11 01:25:17;;;;;;;3.42;0.68;;;7.60;99.90;;;;;;4974251;28;20090;-69
2023/04/11 01:27:43;;;;;;;2.97;0.55;;;7.60;99.90;;;;;;4974740;28;20055;-69
2023/04/11 01:30:11;;;;;;;3.45;0.47;;;7.50;99.90;;;;;;4974240;28;20047;-69
2023/04/11 01:32:37;;;;;;;2.60;0.65;;;7.50;99.90;;;;;;4977530;28;20489;-69
2023/04/11 01:35:04;;;;;;;5.13;1.05;;;7.50;99.90;;;;;;4978065;28;20057;-70
2023/04/11 01:37:30;;;;;;;4.05;0.55;;;7.40;99.90;;;;;;4960744;28;20401;-69
2023/04/11 01:39:56;;;;;;;4.15;0.57;;;7.40;99.90;;;;;;4960716;28;20054;-69
2023/04/11 01:42:22;;;;;;;5.80;1.23;;;7.40;99.90;;;;;;4960643;28;20393;-69
2023/04/11 01:44:50;;;;;;;5.25;0.70;;;7.40;99.90;;;;;;4960566;28;20061;-70
2023/04/11 01:47:16;;;;;;;7.07;0.70;;;7.40;99.90;;;;;;4944583;28;20051;-70
2023/04/11 01:49:42;;;;;;;4.05;0.70;;;7.40;99.90;;;;;;4977490;28;20547;-70
2023/04/11 01:52:08;;;;;;;4.72;0.60;;;7.70;99.90;;;;;;4977531;28;20058;-70
2023/04/11 01:54:33;;;;;;;3.50;0.60;;;7.50;99.90;;;;;;4977462;28;20401;-69
2023/04/11 01:57:00;;;;;;;5.07;0.77;;;7.50;99.90;;;;;;4978205;28;20058;-69
2023/04/11 01:59:26;;;;;;;5.43;0.93;;;7.50;99.90;;;;;;4977366;28;20509;-69
2023/04/11 02:01:51;;;;;;;2.60;0.60;;;7.40;99.90;;;;;;4959925;28;20134;-69
2023/04/11 02:04:17;;;;;;;4.07;0.65;;;8.50;99.90;;;;;;4961057;28;20046;-69
2023/04/11 02:06:43;;;;;;;4.63;0.70;;;7.40;99.90;;;;;;4977309;28;20129;-69
2023/04/11 02:09:09;;;;;;;2.28;0.70;;;7.40;99.90;;;;;;4960123;28;20102;-69
2023/04/11 02:11:34;;;;;;;5.35;0.68;;;7.40;99.90;;;;;;4977338;28;20277;-70
2023/04/11 02:14:01;;;;;;;2.63;0.75;;;7.40;99.90;;;;;;4977159;28;20057;-69
2023/04/11 02:16:28;;;;;;;6.13;0.77;;;7.60;99.90;;;;;;4960670;28;20054;-69
2023/04/11 02:18:55;;;;;;;3.72;0.70;;;7.50;99.90;;;;;;4977455;28;20053;-69
2023/04/11 02:21:21;;;;;;;3.97;0.70;;;7.40;99.90;;;;;;4977330;28;20046;-69
2023/04/11 02:23:46;;;;;;;3.28;0.57;;;7.40;99.90;;;;;;4976937;28;20057;-69
2023/04/11 02:26:12;;;;;;;1.92;0.57;;;7.40;99.90;;;;;;4977714;28;20046;-69
2023/04/11 02:28:38;;;;;;;3.78;0.90;;;7.40;99.90;;;;;;4976894;28;20059;-70
2023/04/11 02:31:04;;;;;;;3.67;0.60;;;7.70;99.90;;;;;;4959465;28;20047;-69
2023/04/11 02:33:30;;;;;;;2.88;0.70;;;7.50;99.90;;;;;;4976788;28;20511;-69
2023/04/11 02:35:55;;;;;;;3.15;0.55;;;7.50;99.90;;;;;;4977084;28;20050;-69
2023/04/11 02:38:21;;;;;;;5.80;0.80;;;7.60;99.90;;;;;;4976677;28;20102;-69
2023/04/11 02:40:47;;;;;;;5.80;0.77;;;7.50;99.90;;;;;;4976662;28;20485;-71
2023/04/11 02:43:13;;;;;;;3.83;0.70;;;7.60;99.90;;;;;;4943875;28;20050;-71
2023/04/11 02:45:40;;;;;;;2.00;0.50;;;7.50;99.90;;;;;;4977026;28;20141;-69
2023/04/11 02:48:05;;;;;;;3.17;0.60;;;7.50;99.90;;;;;;4977087;28;20054;-70
2023/04/11 02:50:31;;;;;;;4.07;0.70;;;7.50;99.90;;;;;;4976665;28;20393;-70
2023/04/11 02:52:57;;;;;;;2.05;0.80;;;7.50;99.90;;;;;;4976962;28;20054;-69
2023/04/11 02:55:23;;;;;;;4.57;0.52;;;7.70;99.90;;;;;;4959106;28;20046;-70
2023/04/11 02:57:49;;;;;;;6.43;0.70;;;7.60;99.90;;;;;;4959259;28;20047;-70
2023/04/11 03:00:15;;;;;;;2.67;0.60;;;7.50;99.90;;;;;;4976173;28;20142;-69
2023/04/11 03:02:42;;;;;;;3.05;0.60;;;7.80;99.90;;;;;;4976750;28;20089;-70
2023/04/11 03:05:08;;;;;;;5.15;0.60;;;7.60;99.90;;;;;;4943303;28;20051;-70
2023/04/11 03:07:37;;;;;;;4.10;0.60;;;7.60;99.90;;;;;;4976113;28;20051;-70
2023/04/11 03:10:03;;;;;;;4.75;0.60;;;7.60;99.90;;;;;;4976800;28;20046;-68
2023/04/11 03:12:29;;;;;;;3.80;0.60;;;7.50;99.90;;;;;;4976038;28;20046;-68
2023/04/11 03:14:55;;;;;;;3.05;0.80;;;7.60;99.90;;;;;;4958755;28;20053;-68
2023/04/11 03:17:20;;;;;;;2.65;0.60;;;7.50;99.90;;;;;;4975977;28;20042;-68
2023/04/11 03:19:46;;;;;;;4.00;0.60;;;7.60;99.90;;;;;;4975618;28;20057;-69
2023/04/11 03:22:12;;;;;;;4.90;0.57;;;7.70;99.90;;;;;;4958698;28;20053;-68
2023/04/11 03:24:40;;;;;;;0.70;0.40;;;7.60;99.90;;;;;;4975579;28;20038;-70
2023/04/11 03:27:06;;;;;;;1.88;0.65;;;7.60;99.90;;;;;;4975752;28;20047;-69
2023/04/11 03:29:32;;;;;;;2.10;0.40;;;7.60;99.90;;;;;;4975698;28;20057;-69
2023/04/11 03:31:58;;;;;;;1.98;0.40;;;7.50;99.90;;;;;;4975631;28;20126;-68
2023/04/11 03:34:25;;;;;;;1.38;0.40;;;7.50;99.90;;;;;;4958625;28;20098;-67
2023/04/11 03:36:51;;;;;;;1.52;0.43;;;7.50;99.90;;;;;;4976091;28;20058;-68
2023/04/11 03:39:20;;;;;;;1.13;0.30;;;7.50;99.90;;;;;;4975553;28;20101;-66
2023/04/11 03:41:47;;;;;;;1.42;0.40;;;7.40;99.90;;;;;;4976085;28;20051;-67
2023/04/11 03:44:13;;;;;;;1.75;0.40;;;7.40;99.90;;;;;;4975389;28;20053;-67
2023/04/11 03:46:38;;;;;;;1.98;0.70;;;7.40;99.90;;;;;;4975396;28;20050;-67
2023/04/11 03:49:04;;;;;;;2.35;0.60;;;7.50;99.90;;;;;;4975289;28;20366;-67
2023/04/11 03:51:30;;;;;;;1.00;0.38;;;7.40;99.90;;;;;;4975889;28;20393;-67
2023/04/11 03:53:56;;;;;;;2.25;0.50;;;7.30;99.90;;;;;;4975117;28;20054;-69
2023/04/11 03:56:22;;;;;;;1.50;0.50;;;7.40;99.90;;;;;;4975275;28;20432;-67
2023/04/11 03:58:48;;;;;;;2.42;0.45;;;7.40;99.90;;;;;;4975255;28;20138;-68
2023/04/11 04:01:13;;;;;;;2.17;0.43;;;7.40;99.90;;;;;;4957879;28;20114;-70
2023/04/11 04:03:39;;;;;;;1.88;0.65;;;7.30;99.90;;;;;;4975133;28;20054;-67
2023/04/11 04:06:05;;;;;;;2.85;0.50;;;7.60;99.90;;;;;;4974877;28;20508;-68
2023/04/11 04:08:32;;;;;;;3.08;0.50;;;7.40;99.90;;;;;;4975663;28;20082;-68
2023/04/11 04:10:58;;;;;;;2.83;0.50;;;7.40;99.90;;;;;;4975503;28;20047;-69
2023/04/11 04:13:23;;;;;;;3.63;0.63;;;7.30;99.90;;;;;;4975426;28;20424;-69
2023/04/11 04:15:52;;;;;;;0.98;0.47;;;7.40;99.90;;;;;;4975279;28;20043;-68
2023/04/11 04:18:18;;;;;;;2.80;0.70;;;7.30;99.90;;;;;;4957603;28;20058;-68
2023/04/11 04:20:45;;;;;;;2.08;0.50;;;7.40;99.90;;;;;;4974924;28;20047;-68
2023/04/11 04:23:12;;;;;;;2.28;0.50;;;7.50;99.90;;;;;;4974920;28;20047;-69
2023/04/11 04:25:40;;;;;;;3.47;0.80;;;7.90;99.90;;;;;;4974825;28;20059;-68
2023/04/11 04:28:07;;;;;;;3.88;0.60;;;7.60;99.90;;;;;;4974830;28;20097;-68
2023/04/11 04:30:32;;;;;;;2.28;0.75;;;7.50;99.90;;;;;;4974686;28;20046;-68
2023/04/11 04:32:58;;;;;;;3.90;0.80;;;7.40;99.90;;;;;;4957606;28;20053;-68
2023/04/11 04:35:25;;;;;;;3.33;0.60;;;7.40;99.90;;;;;;4957896;28;20050;-68
2023/04/11 04:37:52;;;;;;;3.40;1.02;;;7.50;99.90;;;;;;4975119;28;20053;-68
2023/04/11 04:40:19;;;;;;;4.22;0.75;;;7.40;99.90;;;;;;4974789;28;20055;-69
2023/04/11 04:42:48;;;;;;;2.55;0.80;;;7.40;99.90;;;;;;4974986;28;20073;-70
2023/04/11 04:45:15;;;;;;;5.10;1.23;;;7.80;99.90;;;;;;4975039;28;20059;-68
2023/04/11 04:47:41;;;;;;;2.45;0.60;;;7.40;99.90;;;;;;4975208;28;20051;-68
2023/04/11 04:50:07;;;;;;;5.75;0.85;;;7.40;99.90;;;;;;4959590;28;20496;-69
2023/04/11 04:52:33;;;;;;;4.57;1.20;;;7.40;99.90;;;;;;4976376;28;20086;-68
2023/04/11 04:55:00;;;;;;;4.45;1.00;;;7.40;99.90;;;;;;4974822;28;20042;-68
2023/04/11 04:57:30;;;;;;;7.63;1.27;;;7.40;99.90;;;;;;4974561;28;20046;-67
2023/04/11 04:59:57;;;;;;;4.38;1.00;;;7.50;99.90;;;;;;4973955;28;20560;-68
2023/04/11 05:02:25;;;;;;;2.50;0.90;;;7.50;99.90;;;;;;4957627;28;20046;-71
2023/04/11 05:04:53;;;;;;;5.57;0.98;;;7.60;99.90;;;;;;4975406;28;20047;-68
2023/04/11 05:07:19;;;;;;;4.05;1.30;;;7.50;99.90;;;;;;4978235;28;20055;-67
2023/04/11 05:09:45;;;;;;;5.15;1.10;;;7.50;99.90;;;;;;4961015;28;20401;-68
2023/04/11 05:12:13;;;;;;;4.57;0.93;;;7.50;99.90;;;;;;4978257;28;20056;-68
2023/04/11 05:14:38;;;;;;;4.80;1.20;;;7.50;99.90;;;;;;4977818;28;20505;-68
2023/04/11 05:17:04;;;;;;;6.22;1.25;;;7.70;99.90;;;;;;4978428;28;20067;-68
2023/04/11 05:19:31;;;;;;;6.47;1.00;;;7.60;99.90;;;;;;4978081;28;20038;-67
2023/04/11 05:21:56;;;;;;;4.32;1.02;;;7.60;99.90;;;;;;4960933;28;20135;-67
2023/04/11 05:24:22;;;;;;;3.88;1.17;;;7.60;99.90;;;;;;4977668;28;20089;-67
2023/04/11 05:26:48;;;;;;;5.13;1.45;;;7.60;99.90;;;;;;4961591;28;20053;-67
2023/04/11 05:29:14;;;;;;;5.47;1.20;;;7.80;99.90;;;;;;4977762;28;20042;-67
2023/04/11 05:31:40;;;;;;;3.90;1.20;;;7.60;99.90;;;;;;4977822;28;20047;-68
2023/04/11 05:34:05;;;;;;;5.90;1.10;;;7.60;99.90;;;;;;4978358;28;20094;-67
2023/04/11 05:36:31;;;;;;;6.03;1.48;;;7.70;99.90;;;;;;4977836;28;20125;-67
2023/04/11 05:38:57;;;;;;;5.07;1.05;;;7.70;99.90;;;;;;4978367;28;20056;-67
2023/04/11 05:41:23;;;;;;;3.60;1.15;;;7.80;99.90;;;;;;4978389;28;20043;-68
2023/04/11 05:43:48;;;;;;;4.70;1.13;;;7.80;99.90;;;;;;4977500;28;20145;-69
2023/04/11 05:46:14;;;;;;;5.82;1.30;;;7.80;99.90;;;;;;4960471;28;20054;-69
2023/04/11 05:48:40;;;;;;;6.07;1.60;;;7.80;99.90;;;;;;4960238;28;20057;-68
2023/04/11 05:51:07;;;;;;;3.78;1.08;;;7.80;99.90;;;;;;4960117;28;20133;-68
2023/04/11 05:53:32;;;;;;;6.63;1.20;;;7.80;99.90;;;;;;4977435;28;20098;-69
2023/04/11 05:56:00;;;;;;;5.90;1.20;;;7.80;99.90;;;;;;4960169;28;20054;-68
2023/04/11 05:58:25;;;;;;;5.15;1.23;;;7.80;99.90;;;;;;4977375;28;20042;-69
2023/04/11 06:00:51;;;;;;;4.93;1.20;;;7.80;99.90;;;;;;4977123;28;20464;-68
2023/04/11 06:03:17;;;;;;;7.18;1.35;;;7.80;99.90;;;;;;4977780;28;20129;-67
2023/04/11 06:05:42;;;;;;;6.82;1.10;;;8.00;99.90;;;;;;4977314;28;20094;-68
2023/04/11 06:08:09;;;;;;;6.50;1.25;;;7.80;99.90;;;;;;4977712;28;20090;-70
2023/04/11 06:10:35;;;;;;;4.55;1.20;;;7.80;99.90;;;;;;4959985;28;20049;-66
2023/04/11 06:13:00;;;;;;;5.93;1.20;;;7.80;99.90;;;;;;4977112;28;20413;-69
2023/04/11 06:15:26;;;;;;;5.57;1.20;;;8.10;99.90;;;;;;4976857;28;20412;-70
2023/04/11 06:17:52;;;;;;;6.47;1.20;;;7.70;99.90;;;;;;4976343;28;20061;-69
2023/04/11 06:20:19;;;;;;;4.45;1.17;;;7.80;99.90;;;;;;4977479;28;20055;-69
2023/04/11 06:22:45;;;;;;;5.57;1.10;;;7.70;99.90;;;;;;4977013;28;20097;-69
2023/04/11 06:25:11;;;;;;;8.73;1.30;;;7.70;99.90;;;;;;4976962;28;20169;-73
2023/04/11 06:27:37;;;;;;;9.27;1.50;;;7.80;99.90;;;;;;4976862;28;20090;-68
2023/04/11 06:30:04;;;;;;;4.43;1.45;;;7.80;99.90;;;;;;4959813;28;20070;-67
2023/04/11 06:32:29;;;;;;;3.47;1.40;;;7.80;99.90;;;;;;4977339;28;20046;-69
2023/04/11 06:34:55;;;;;;;5.53;1.40;;;7.80;99.90;;;;;;4977307;28;20105;-68
2023/04/11 06:37:22;;;;;;;8.70;1.65;;;7.80;99.90;;;;;;4976699;28;20057;-69
2023/04/11 06:39:48;;;;;;;7.85;1.50;;;7.70;99.90;;;;;;4976804;28;20106;-68
2023/04/11 06:42:13;;;;;;;6.95;1.45;;;7.80;99.90;;;;;;4976992;28;20054;-71
2023/04/11 06:44:39;;;;;;;5.30;1.30;;;8.00;99.90;;;;;;4977804;28;20043;-68
2023/04/11 06:47:05;;;;;;;7.70;1.50;;;8.00;99.90;;;;;;4977452;28;20050;-69
2023/04/11 06:49:31;;;;;;;7.55;2.40;;;7.80;99.90;;;;;;4959683;28;20043;-69
2023/04/11 06:51:58;;;;;;;6.65;1.58;;;7.80;99.90;;;;;;4959393;28;20104;-69
2023/04/11 06:54:24;;;;;;;4.63;1.08;;;7.80;99.90;;;;;;4977208;28;20134;-69
2023/04/11 06:56:50;;;;;;;6.78;1.35;;;7.90;99.90;;;;;;4977224;28;20073;-70
2023/04/11 06:59:20;;;;;;;6.93;1.55;;;7.80;99.90;;;;;;4976335;28;20046;-68
2023/04/11 07:01:47;;;;;;;8.38;2.50;;;7.90;99.90;;;;;;4976218;28;20067;-69
2023/04/11 07:04:13;;;;;;;7.72;1.55;;;7.90;99.90;;;;;;4959565;28;20109;-69
2023/04/11 07:06:39;;;;;;;5.07;1.50;;;7.90;99.90;;;;;;4976189;28;20047;-72
2023/04/11 07:09:04;;;;;;;4.18;1.30;;;7.90;99.90;;;;;;4976856;28;20059;-70
2023/04/11 07:11:31;;;;;;;8.10;1.50;;;8.00;99.90;;;;;;4976120;28;20485;-69
2023/04/11 07:13:58;;;;;;;8.57;1.70;;;8.00;99.90;;;;;;4976045;28;20043;-70
2023/04/11 07:16:25;;;;;;;5.85;1.35;;;8.10;99.90;;;;;;4959349;28;20064;-68
2023/04/11 07:18:52;;;;;;;5.63;1.30;;;8.00;99.90;;;;;;4959482;28;20057;-69
2023/04/11 07:21:18;;;;;;;8.10;1.45;;;8.10;99.90;;;;;;4976439;28;20055;-72
2023/04/11 07:23:43;;;;;;;7.72;1.40;;;8.20;99.90;;;;;;4975856;28;20043;-73
2023/04/11 07:26:10;;;;;;;5.15;1.23;;;8.20;99.90;;;;;;4976324;28;20046;-69
2023/04/11 07:28:40;;;;;;;5.85;1.38;;;8.30;99.90;;;;;;4974777;28;20050;-71
2023/04/11 07:31:06;;;;;;;7.97;1.48;;;8.30;99.90;;;;;;4976045;28;20073;-68
2023/04/11 07:33:36;;;;;;;9.85;1.50;;;8.30;99.90;;;;;;4975954;28;20500;-69
2023/04/11 07:36:03;;;;;;;3.55;1.33;;;8.30;99.90;;;;;;4975649;28;20055;-67
2023/04/11 07:38:29;;;;;;;3.60;0.90;;;8.40;99.90;;;;;;4975664;28;20112;-70
2023/04/11 07:40:55;;;;;;;5.57;0.90;;;8.30;99.90;;;;;;4975601;28;20050;-71
2023/04/11 07:43:22;;;;;;;6.43;1.45;;;8.30;99.90;;;;;;4959181;28;20154;-67
2023/04/11 07:45:48;;;;;;;3.90;1.08;;;8.20;99.90;;;;;;4958580;28;20073;-71
2023/04/11 07:48:13;;;;;;;5.40;1.58;;;8.20;99.90;;;;;;4976526;28;20476;-69
2023/04/11 07:50:39;;;;;;;4.60;1.20;;;8.20;99.90;;;;;;4958327;28;20440;-69
2023/04/11 07:53:06;;;;;;;3.72;1.00;;;8.30;99.90;;;;;;4975507;28;20051;-69
2023/04/11 07:55:32;;;;;;;7.97;1.58;;;8.30;99.90;;;;;;4975437;28;20507;-69
2023/04/11 07:57:58;;;;;;;4.63;1.23;;;8.30;99.90;;;;;;4975894;28;20141;-69
2023/04/11 08:00:24;;;;;;;8.85;1.10;;;8.30;99.90;;;;;;4975339;28;20049;-69
2023/04/11 08:02:51;;;;;;;8.68;1.70;;;8.30;99.90;;;;;;4941929;28;20055;-67
2023/04/11 08:05:17;;;;;;;6.07;1.65;;;8.30;99.90;;;;;;4975310;28;20054;-69
2023/04/11 08:07:43;;;;;;;6.50;1.98;;;8.40;99.90;;;;;;4975728;28;20053;-69
2023/04/11 08:10:09;;;;;;;8.65;1.10;;;8.50;99.90;;;;;;4975292;28;20419;-70
2023/04/11 08:12:34;;;;;;;9.05;1.13;;;8.50;99.90;;;;;;4975657;28;20051;-70
2023/04/11 08:15:01;;;;;;;4.88;0.90;;;8.60;99.90;;;;;;4975105;28;20400;-71
2023/04/11 08:17:29;;;;;;;5.38;1.10;;;8.60;99.90;;;;;;4975684;28;20089;-69
2023/04/11 08:19:56;;;;;;;6.35;1.15;;;8.80;99.90;;;;;;4958272;28;20112;-71
2023/04/11 08:22:21;;;;;;;5.07;1.65;;;8.90;99.90;;;;;;4974983;28;20047;-69
2023/04/11 08:24:47;;;;;;;2.90;0.70;;;9.00;99.90;;;;;;4975069;28;20047;-70
2023/04/11 08:27:13;;;;;;;1.90;0.65;;;8.90;99.90;;;;;;4957741;28;20170;-69
2023/04/11 08:29:38;;;;;;;2.95;0.70;;;8.60;99.90;;;;;;4975761;28;20106;-68
2023/04/11 08:32:04;;;;;;;3.30;0.70;;;8.50;99.90;;;;;;4975845;28;20118;-69
2023/04/11 08:34:33;;;;;;;4.85;0.90;;;8.10;99.90;;;;;;4976919;28;20046;-68
2023/04/11 08:36:58;;;;;;;5.60;0.90;;;8.00;99.90;;;;;;4977365;28;20051;-69
2023/04/11 08:39:24;;;;;;;8.90;0.95;;;7.90;99.90;;;;;;4977345;28;20043;-69
2023/04/11 08:41:50;;;;;;;4.88;1.00;;;8.00;99.90;;;;;;4976139;28;20055;-69
2023/04/11 08:44:16;;;;;;;4.55;1.20;;;8.00;99.90;;;;;;4975911;28;20449;-70
2023/04/11 08:46:42;;;;;;;4.18;1.30;;;8.10;99.90;;;;;;4957664;28;20046;-69
2023/04/11 08:49:09;;;;;;;7.72;1.13;;;8.10;99.90;;;;;;4974517;28;20051;-69
2023/04/11 08:51:35;;;;;;;7.63;1.05;;;8.20;99.90;;;;;;4958116;28;20051;-68
2023/04/11 08:54:04;;;;;;;8.02;2.33;;;8.20;99.90;;;;;;4974727;28;20397;-69
2023/04/11 08:56:30;;;;;;;5.82;2.00;;;8.20;99.90;;;;;;4942373;28;20050;-72
2023/04/11 08:58:56;;;;;;;4.90;1.35;;;8.30;99.90;;;;;;4974698;28;20062;-69
2023/04/11 09:01:33;;;;;;;7.68;1.48;;;8.20;99.90;;;;;;4957116;28;20058;-74
2023/04/11 09:04:01;;;;;;;7.20;1.30;;;8.30;99.90;;;;;;4975408;28;20042;-70
2023/04/11 09:06:31;;;;;;;6.47;1.15;;;8.30;99.90;;;;;;4974233;28;20485;-70
2023/04/11 09:09:05;;;;;;;5.28;1.08;;;8.30;99.90;;;;;;4957527;28;20082;-72
2023/04/11 09:11:50;;;;;;;7.40;1.17;;;8.30;99.90;;;;;;4974622;28;20058;-69
2023/04/11 09:14:16;;;;;;;3.40;0.80;;;8.40;99.90;;;;;;4957568;28;20121;-74
2023/04/11 09:16:53;;;;;;;5.30;0.90;;;8.40;99.90;;;;;;4974835;28;20489;-71
2023/04/11 09:19:23;;;;;;;4.53;1.08;;;8.60;99.90;;;;;;4974861;28;20089;-69
2023/04/11 09:21:49;;;;;;;7.00;1.10;;;8.50;99.90;;;;;;4974422;28;20078;-70
2023/04/11 09:24:16;;;;;;;6.50;1.00;;;8.70;99.90;;;;;;4974613;28;20453;-75
2023/04/11 09:26:41;;;;;;;3.08;0.80;;;8.80;99.90;;;;;;4974437;28;20093;-72
2023/04/11 09:29:07;;;;;;;3.95;0.70;;;8.80;99.90;;;;;;4974673;28;20086;-69
2023/04/11 09:31:43;;;;;;;1.05;0.32;;;8.70;99.90;;;;;;4974791;28;20069;-71
2023/04/11 09:34:11;;;;;;;1.77;0.40;;;8.50;99.90;;;;;;4974807;28;20483;-73
2023/04/11 09:36:38;;;;;;;4.28;0.60;;;8.40;99.90;;;;;;4974221;28;20104;-72
2023/04/11 09:39:19;;;;;;;3.00;0.70;;;8.20;99.90;;;;;;4941197;28;20138;-70
2023/04/11 09:41:45;;;;;;;3.85;0.63;;;8.20;99.90;;;;;;4974245;28;20083;-70
2023/04/11 09:44:11;;;;;;;5.53;0.80;;;8.10;99.90;;;;;;4974051;28;20062;-70
2023/04/11 09:46:55;;;;;;;4.93;1.05;;;8.30;99.90;;;;;;4956994;28;20441;-70
2023/04/11 09:49:23;;;;;;;4.63;0.82;;;8.40;99.90;;;;;;4974240;28;20400;-71
2023/04/11 09:51:52;;;;;;;5.13;0.90;;;8.60;99.90;;;;;;4976014;28;20377;-71
2023/04/11 09:54:21;;;;;;;4.00;0.77;;;8.90;99.90;;;;;;4978068;28;20059;-71
2023/04/11 09:56:47;;;;;;;3.03;0.88;;;9.00;99.90;;;;;;4978162;28;20133;-72
2023/04/11 09:59:18;;;;;;;2.55;0.65;;;9.10;99.90;;;;;;4944514;28;20382;-73
2023/04/11 10:01:44;;;;;;;2.50;0.70;;;9.20;99.90;;;;;;4977539;28;20055;-70
2023/04/11 10:04:10;;;;;;;4.00;0.70;;;9.50;99.90;;;;;;4960198;28;20138;-72
2023/04/11 10:06:40;;;;;;;4.20;0.90;;;9.70;99.90;;;;;;4976891;28;20054;-74
2023/04/11 10:09:13;;;;;;;1.95;0.40;;;9.80;99.90;;;;;;4977098;28;20050;-71
2023/04/11 10:11:43;;;;;;;2.22;0.60;;;9.80;99.90;;;;;;4977766;28;20050;-72
2023/04/11 10:14:38;;;;;;;3.03;0.60;;;9.70;99.90;;;;;;4977116;28;20050;-75
2023/04/11 10:17:18;;;;;;;5.00;0.80;;;9.30;99.90;;;;;;4977066;28;20049;-71
2023/04/11 10:19:44;;;;;;;3.95;0.70;;;9.30;99.90;;;;;;4959545;28;20110;-72
2023/04/11 10:22:30;;;;;;;6.90;0.82;;;9.40;99.90;;;;;;4977114;28;20048;-72
2023/04/11 10:25:25;;;;;;;4.13;0.80;;;9.60;99.90;;;;;;4976899;28;20046;-71
2023/04/11 10:27:59;;;;;;;2.65;0.80;;;9.70;99.90;;;;;;4974802;28;20062;-69
2023/04/11 10:30:40;;;;;;;3.00;0.50;;;9.80;99.90;;;;;;4944098;28;20047;-71
2023/04/11 10:33:14;;;;;;;2.05;0.40;;;9.40;99.90;;;;;;4976974;28;20055;-72
2023/04/11 10:36:04;;;;;;;3.15;0.38;;;9.10;99.90;;;;;;4960436;28;20372;-70
2023/04/11 10:38:47;;;;;;;1.90;0.40;;;8.90;99.90;;;;;;4976405;28;20047;-70
2023/04/11 10:41:13;;;;;;;;;;;8.70;99.90;;;;;;4977241;28;20043;-72
2023/04/11 10:43:38;;;;;;;2.25;0.50;;;8.50;99.90;;;;;;4976611;28;19922;-70
2023/04/11 10:46:20;;;;;;;0.70;0.30;;;8.50;99.90;;;;;;4959680;28;20047;-70
2023/04/11 10:49:00;;;;;;;3.58;0.50;;;8.40;99.90;;;;;;4976477;28;20058;-70
2023/04/11 10:51:31;;;;;;;1.88;0.50;;;8.40;99.90;;;;;;4976618;28;20104;-72
2023/04/11 10:54:00;;;;;;;5.07;0.55;;;8.30;99.90;;;;;;4977399;28;20082;-73
2023/04/11 10:56:51;;;;;;;2.30;0.50;;;8.30;99.90;;;;;;4976691;28;20116;-77
2023/04/11 10:59:33;;;;;;;2.35;0.40;;;8.10;99.90;;;;;;4960063;28;20082;-71
2023/04/11 11:02:02;;;;;;;1.77;0.30;;;7.90;99.90;;;;;;4976477;28;20097;-71
2023/04/11 11:04:32;;;;;;;0.55;0.22;;;7.80;99.90;;;;;;4958945;28;20050;-73
2023/04/11 11:07:00;;;;;;;1.33;0.15;;;7.70;99.90;;;;;;4976236;28;20053;-73
2023/04/11 11:09:27;;;;;;;3.70;0.30;;;7.60;99.90;;;;;;4976041;28;20089;-74
2023/04/11 11:12:15;;;;;;;1.08;0.30;;;7.60;99.90;;;;;;4976198;28;20141;-75
2023/04/11 11:14:44;;;;;;;1.95;0.30;;;7.60;99.90;;;;;;4942506;28;20055;-71
2023/04/11 11:17:14;;;;;;;2.85;0.30;;;7.60;99.90;;;;;;4976311;28;20393;-73
2023/04/11 11:19:47;;;;;;;1.73;0.38;;;7.30;99.90;;;;;;4959096;28;20405;-71
2023/04/11 11:22:27;;;;;;;1.15;0.43;;;7.30;99.90;;;;;;4958501;28;20497;-70
2023/04/11 11:24:53;;;;;;;2.63;0.65;;;7.30;99.90;;;;;;4975974;28;20050;-73
2023/04/11 11:27:23;;;;;;;3.35;0.77;;;7.50;99.90;;;;;;4976170;28;20055;-73
2023/04/11 11:29:49;;;;;;;5.95;0.80;;;7.60;99.90;;;;;;4976055;28;20082;-73
2023/04/11 11:32:23;;;;;;;2.58;0.52;;;7.60;99.90;;;;;;4958676;28;20480;-75
2023/04/11 11:34:51;;;;;;;3.70;0.65;;;7.80;99.90;;;;;;4975813;28;20096;-76
2023/04/11 11:37:17;;;;;;;2.08;0.70;;;8.10;99.90;;;;;;4975763;28;20452;-74
2023/04/11 11:39:43;;;;;;;3.55;0.95;;;8.20;99.90;;;;;;4975264;28;20043;-75
2023/04/11 11:42:09;;;;;;;2.95;0.85;;;8.20;99.90;;;;;;4976379;28;20368;-74
2023/04/11 11:44:36;;;;;;;4.13;0.40;;;8.20;99.90;;;;;;4975444;28;20046;-68
2023/04/11 11:47:07;;;;;;;1.25;0.30;;;8.10;99.90;;;;;;4975503;28;20055;-73
2023/04/11 11:49:47;;;;;;;2.15;0.40;;;8.10;99.90;;;;;;4975801;28;20046;-75
2023/04/11 11:52:38;;;;;;;1.27;0.30;;;8.10;99.90;;;;;;4975959;28;20186;-74
2023/04/11 11:55:28;;;;;;;1.70;0.50;;;8.10;99.90;;;;;;4958377;28;20047;-74
2023/04/11 11:58:01;;;;;;;3.47;0.57;;;8.10;99.90;;;;;;4965946;28;20057;-71
2023/04/11 12:00:29;;;;;;;4.90;0.57;;;8.30;99.90;;;;;;4975989;28;20053;-73
2023/04/11 12:02:58;;;;;;;1.10;0.40;;;8.40;99.90;;;;;;4958304;28;20142;-81
2023/04/11 12:05:28;;;;;;;1.85;0.50;;;8.60;99.90;;;;;;4975885;28;20133;-74
2023/04/11 12:07:57;;;;;;;3.35;0.60;;;8.80;99.90;;;;;;4976044;28;20058;-73
2023/04/11 12:10:23;;;;;;;0.90;0.30;;;9.00;99.90;;;;;;4974965;28;20070;-75
2023/04/11 12:12:49;;;;;;;2.53;0.40;;;9.20;99.90;;;;;;4975469;28;20055;-73
2023/04/11 12:15:20;;;;;;;3.75;1.23;;;9.40;99.90;;;;;;4974154;28;20496;-73
2023/04/11 12:17:53;;;;;;;4.50;0.50;;;9.60;99.90;;;;;;4975075;28;20047;-72
2023/04/11 12:20:25;;;;;;;3.85;0.88;;;9.70;99.90;;;;;;4975404;28;20124;-74
2023/04/11 12:22:51;;;;;;;10.35;1.30;;;10.00;99.90;;;;;;4957979;28;20049;-73
2023/04/11 12:25:16;;;;;;;6.30;0.60;;;10.00;99.90;;;;;;4975562;28;20039;-73
2023/04/11 12:27:44;;;;;;;3.90;0.50;;;10.10;99.90;;;;;;4974993;28;20042;-75
2023/04/11 12:30:11;;;;;;;5.00;0.90;;;10.30;99.90;;;;;;4975803;28;20072;-77
2023/04/11 12:32:37;;;;;;;5.53;0.80;;;10.30;99.90;;;;;;4974941;28;20043;-76
2023/04/11 12:35:04;;;;;;;6.30;0.80;;;10.20;99.90;;;;;;4975522;28;20109;-74
2023/04/11 12:37:31;;;;;;;2.63;0.70;;;10.30;99.90;;;;;;4975502;28;20046;-74
2023/04/11 12:39:57;;;;;;;6.60;0.88;;;10.30;99.90;;;;;;4974808;28;20477;-72
2023/04/11 12:42:23;;;;;;;8.73;0.98;;;10.40;99.90;;;;;;4975006;28;20102;-81
2023/04/11 12:44:51;;;;;;;3.55;0.60;;;10.30;99.90;;;;;;4978884;28;20077;-75
2023/04/11 12:47:17;;;;;;;3.72;1.10;;;10.20;99.90;;;;;;4984540;28;20050;-76
2023/04/11 12:49:43;;;;;;;1.10;0.60;;;9.90;99.90;;;;;;4984807;28;20422;-79
2023/04/11 12:52:09;;;;;;;4.72;0.70;;;9.70;99.90;;;;;;4987376;28;20050;-75
2023/04/11 12:54:35;;;;;;;5.13;0.70;;;9.50;99.90;;;;;;4986775;28;20125;-75
2023/04/11 12:57:01;;;;;;;3.33;0.80;;;9.40;99.90;;;;;;4980424;28;20042;-74
2023/04/11 12:59:28;;;;;;;3.83;0.80;;;9.30;99.90;;;;;;4975662;28;20118;-75
2023/04/11 13:01:55;;;;;;;4.38;0.93;;;9.40;99.90;;;;;;4974895;28;20058;-75